SWR285 LSGG-LSZH
Flight info
| Callsign | SWR285 |
|---|---|
| Flight time | N/A |
| Altitude | 17000 |
| Route | SOSAL N871 BERSU |
| Aircraft | A333/H-SDE3GHIJ2J3J5M1RVWXY/LB2D1 |
Departure
| Time | 2026-05-05 19:56 |
|---|---|
| Airport | Geneva International Airport (LSGG) |
Arrival
| Time | N/A |
|---|---|
| Airport | Zürich Airport (LSZH) |
| Time | Latitude | Longitude | Altitude | Speed | Heading |
|---|---|---|---|---|---|
| 2026-05-05 19:35 | 46.23380 | 6.11042 | 1407 ft | 0 kts | 135° |
| 2026-05-05 19:47 | 46.23380 | 6.11041 | 1396 ft | 1 kts | 135° |
| 2026-05-05 19:47 | 46.23394 | 6.11021 | 1409 ft | 3 kts | 135° |
| 2026-05-05 19:48 | 46.23409 | 6.11000 | 1405 ft | 3 kts | 135° |
| 2026-05-05 19:48 | 46.23422 | 6.10981 | 1407 ft | 3 kts | 118° |
| 2026-05-05 19:48 | 46.23425 | 6.10958 | 1407 ft | 3 kts | 68° |
| 2026-05-05 19:48 | 46.23415 | 6.10932 | 1407 ft | 3 kts | 48° |
| 2026-05-05 19:49 | 46.23410 | 6.10925 | 1407 ft | 0 kts | 45° |
| 2026-05-05 19:51 | 46.23411 | 6.10926 | 1407 ft | 1 kts | 45° |
| 2026-05-05 19:51 | 46.23443 | 6.10973 | 1407 ft | 9 kts | 45° |
| 2026-05-05 19:51 | 46.23498 | 6.11053 | 1407 ft | 13 kts | 45° |
| 2026-05-05 19:51 | 46.23559 | 6.11140 | 1407 ft | 11 kts | 38° |
| 2026-05-05 19:52 | 46.23630 | 6.11116 | 1404 ft | 12 kts | 320° |
| 2026-05-05 19:52 | 46.23716 | 6.11103 | 1385 ft | 17 kts | 31° |
| 2026-05-05 19:52 | 46.23820 | 6.11246 | 1378 ft | 23 kts | 45° |
| 2026-05-05 19:52 | 46.23897 | 6.11360 | 1376 ft | 25 kts | 46° |
| 2026-05-05 19:53 | 46.24023 | 6.11546 | 1371 ft | 27 kts | 45° |
| 2026-05-05 19:53 | 46.24211 | 6.11821 | 1367 ft | 31 kts | 45° |
| 2026-05-05 19:53 | 46.24298 | 6.11949 | 1367 ft | 25 kts | 45° |
| 2026-05-05 19:53 | 46.24415 | 6.12122 | 1370 ft | 23 kts | 45° |
| 2026-05-05 19:54 | 46.24524 | 6.12283 | 1372 ft | 23 kts | 46° |
| 2026-05-05 19:54 | 46.24643 | 6.12459 | 1369 ft | 27 kts | 46° |
| 2026-05-05 19:54 | 46.24759 | 6.12625 | 1365 ft | 14 kts | 34° |
| 2026-05-05 19:54 | 46.24848 | 6.12694 | 1367 ft | 15 kts | 18° |
| 2026-05-05 19:55 | 46.24942 | 6.12728 | 1370 ft | 13 kts | 8° |
| 2026-05-05 19:55 | 46.24992 | 6.12676 | 1372 ft | 7 kts | 281° |
| 2026-05-05 19:55 | 46.24963 | 6.12596 | 1373 ft | 12 kts | 227° |
| 2026-05-05 19:55 | 46.24813 | 6.12378 | 1372 ft | 61 kts | 225° |
| 2026-05-05 19:56 | 46.24343 | 6.11688 | 1373 ft | 130 kts | 225° |
| 2026-05-05 19:56 | 46.23595 | 6.10578 | 1577 ft | 173 kts | 226° |
| 2026-05-05 19:56 | 46.22719 | 6.09284 | 2379 ft | 185 kts | 225° |
| 2026-05-05 19:56 | 46.21797 | 6.07951 | 3423 ft | 186 kts | 224° |
| 2026-05-05 19:57 | 46.20881 | 6.06682 | 4473 ft | 180 kts | 223° |
| 2026-05-05 19:57 | 46.19968 | 6.05452 | 5428 ft | 183 kts | 222° |
| 2026-05-05 19:57 | 46.18962 | 6.04089 | 5878 ft | 215 kts | 223° |
| 2026-05-05 19:57 | 46.17807 | 6.02520 | 6414 ft | 238 kts | 223° |
| 2026-05-05 19:58 | 46.16585 | 6.00859 | 7161 ft | 249 kts | 223° |
| 2026-05-05 19:58 | 46.15309 | 5.99140 | 8139 ft | 253 kts | 221° |
| 2026-05-05 19:58 | 46.13795 | 5.97827 | 9126 ft | 259 kts | 199° |
| 2026-05-05 19:58 | 46.11970 | 5.97666 | 10042 ft | 271 kts | 173° |
| 2026-05-05 19:59 | 46.10147 | 5.98719 | 10560 ft | 299 kts | 150° |
| 2026-05-05 19:59 | 46.08616 | 6.00959 | 10897 ft | 332 kts | 127° |
| 2026-05-05 19:59 | 46.07674 | 6.04139 | 11285 ft | 358 kts | 109° |
| 2026-05-05 19:59 | 46.07194 | 6.07722 | 12017 ft | 371 kts | 97° |
| 2026-05-05 20:00 | 46.07382 | 6.11471 | 12829 ft | 382 kts | 77° |
| 2026-05-05 20:00 | 46.08497 | 6.14913 | 13685 ft | 390 kts | 55° |
| 2026-05-05 20:00 | 46.10257 | 6.17930 | 14394 ft | 394 kts | 48° |
| 2026-05-05 20:00 | 46.12154 | 6.20814 | 14800 ft | 399 kts | 47° |
| 2026-05-05 20:01 | 46.14080 | 6.23705 | 14902 ft | 400 kts | 47° |
| 2026-05-05 20:01 | 46.16012 | 6.26627 | 14911 ft | 401 kts | 47° |
| 2026-05-05 20:01 | 46.17917 | 6.29529 | 14914 ft | 408 kts | 47° |
| 2026-05-05 20:01 | 46.19921 | 6.32600 | 14916 ft | 420 kts | 47° |
| 2026-05-05 20:02 | 46.21902 | 6.35646 | 14907 ft | 421 kts | 47° |
| 2026-05-05 20:02 | 46.23908 | 6.38737 | 15173 ft | 423 kts | 47° |
| 2026-05-05 20:02 | 46.25928 | 6.41856 | 15904 ft | 426 kts | 48° |
| 2026-05-05 20:02 | 46.27961 | 6.44999 | 16548 ft | 430 kts | 48° |
| 2026-05-05 20:03 | 46.30007 | 6.48167 | 16863 ft | 430 kts | 48° |